createdAt,value
2018-06-27T00:02:03.963Z,98069.85
2018-06-27T00:04:32.907Z,98062.14
2018-06-27T00:07:01.917Z,98055.08
2018-06-27T00:09:31.173Z,98047.00
2018-06-27T00:12:00.149Z,98050.19
2018-06-27T00:14:29.120Z,98045.94
2018-06-27T00:16:58.129Z,98041.69
2018-06-27T00:19:27.200Z,98033.39
2018-06-27T00:21:59.155Z,98033.94
2018-06-27T00:24:28.376Z,98031.92
2018-06-27T00:26:57.341Z,98038.79
2018-06-27T00:29:26.446Z,98024.85
2018-06-27T00:31:55.380Z,98020.25
2018-06-27T00:34:24.288Z,98015.20
2018-06-27T00:36:53.380Z,98014.89
2018-06-27T00:39:22.396Z,98014.12
2018-06-27T00:41:51.469Z,98010.59
2018-06-27T00:44:20.640Z,98002.19
2018-06-27T00:46:53.679Z,98004.17
2018-06-27T00:49:25.628Z,97997.27
2018-06-27T00:51:54.584Z,97995.48
2018-06-27T00:54:24.225Z,97985.12
2018-06-27T00:56:53.285Z,97970.58
2018-06-27T00:59:22.387Z,97972.50
2018-06-27T01:01:51.483Z,97967.44
2018-06-27T01:04:20.404Z,97962.21
2018-06-27T01:06:49.397Z,97953.15
2018-06-27T01:09:18.437Z,97952.63
2018-06-27T01:11:47.458Z,97943.16
2018-06-27T01:14:16.396Z,97944.67
2018-06-27T01:16:45.533Z,97945.14
2018-06-27T01:19:14.521Z,97947.45
2018-06-27T01:21:43.493Z,97945.95
2018-06-27T01:24:12.663Z,97939.98
2018-06-27T01:26:41.828Z,97937.63
2018-06-27T01:29:10.836Z,97943.91
2018-06-27T01:31:39.981Z,97947.71
2018-06-27T01:34:08.972Z,97953.96
2018-06-27T01:36:37.941Z,97960.55
2018-06-27T01:39:09.309Z,97959.88
2018-06-27T01:41:41.348Z,97961.30
2018-06-27T01:44:10.552Z,97969.70
2018-06-27T01:46:40.117Z,97983.59
2018-06-27T01:49:11.081Z,97972.49
2018-06-27T01:51:40.225Z,97980.38
2018-06-27T01:54:09.159Z,97979.92
2018-06-27T01:56:39.097Z,97978.81
2018-06-27T01:59:08.153Z,97973.37
2018-06-27T02:01:37.229Z,97969.88
2018-06-27T02:04:06.359Z,97970.70
2018-06-27T02:06:35.508Z,97966.78
2018-06-27T02:09:05.801Z,97968.51
2018-06-27T02:11:34.772Z,97963.65
2018-06-27T02:14:03.860Z,97962.75
2018-06-27T02:16:32.845Z,97964.02
2018-06-27T02:19:01.890Z,97964.11
2018-06-27T02:21:31.058Z,97962.80
2018-06-27T02:24:00.071Z,97953.42
2018-06-27T02:26:29.139Z,97951.06
2018-06-27T02:28:58.121Z,97953.31
2018-06-27T02:31:27.349Z,97950.28
2018-06-27T02:33:56.421Z,97951.37
2018-06-27T02:36:25.388Z,97942.20
2018-06-27T02:38:54.429Z,97939.53
2018-06-27T02:41:23.406Z,97924.50
2018-06-27T02:43:52.510Z,97927.28
2018-06-27T02:46:21.616Z,97924.77
2018-06-27T02:48:50.572Z,97921.94
2018-06-27T02:51:19.548Z,97928.30
2018-06-27T02:53:49.048Z,97924.00
2018-06-27T02:56:18.107Z,97928.03
2018-06-27T02:58:47.117Z,97926.30
2018-06-27T03:01:16.848Z,97938.99
2018-06-27T03:03:45.953Z,97936.63
2018-06-27T03:06:14.953Z,97938.09
2018-06-27T03:08:44.012Z,97928.86
2018-06-27T03:11:12.973Z,97917.20
2018-06-27T03:13:41.951Z,97900.75
2018-06-27T03:16:11.070Z,97881.52
2018-06-27T03:18:49.632Z,97863.91
2018-06-27T03:21:18.894Z,97846.23
2018-06-27T03:23:49.923Z,97842.67
2018-06-27T03:26:18.948Z,97856.30
2018-06-27T03:28:47.945Z,97867.85
2018-06-27T03:31:17.261Z,97867.99
2018-06-27T03:33:46.349Z,97879.30
2018-06-27T03:36:15.549Z,97875.36
2018-06-27T03:38:44.609Z,97881.11
2018-06-27T03:41:13.742Z,97885.36
2018-06-27T03:43:42.720Z,97885.22
2018-06-27T03:46:11.679Z,97872.83
2018-06-27T03:48:41.746Z,97872.41
2018-06-27T03:51:10.737Z,97883.88
2018-06-27T03:53:46.931Z,97896.76
2018-06-27T03:56:15.905Z,97903.41
2018-06-27T03:58:45.560Z,97892.03
2018-06-27T04:01:14.888Z,97892.23
2018-06-27T04:03:43.954Z,97897.15
2018-06-27T04:06:12.875Z,97914.47
2018-06-27T04:08:41.936Z,97918.08
2018-06-27T04:11:11.252Z,97919.50
2018-06-27T04:13:40.180Z,97924.61
2018-06-27T04:16:09.400Z,97923.45
2018-06-27T04:18:38.710Z,97924.47
2018-06-27T04:21:08.584Z,97921.52
2018-06-27T04:23:37.682Z,97916.73
2018-06-27T04:26:06.628Z,97918.70
2018-06-27T04:28:35.584Z,97913.91
2018-06-27T04:31:06.456Z,97899.80
2018-06-27T04:33:35.360Z,97895.92
2018-06-27T04:36:04.340Z,97892.77
2018-06-27T04:38:33.337Z,97893.20
2018-06-27T04:41:05.026Z,97897.38
2018-06-27T04:43:34.055Z,97892.53
2018-06-27T04:46:03.024Z,97896.27
2018-06-27T04:48:31.939Z,97885.41
2018-06-27T04:51:00.927Z,97886.70
2018-06-27T04:53:29.851Z,97881.41
2018-06-27T04:55:58.816Z,97879.56
2018-06-27T04:58:27.989Z,97892.75
2018-06-27T05:00:57.016Z,97900.98
2018-06-27T05:03:26.059Z,97904.55
2018-06-27T05:05:55.177Z,97902.16
2018-06-27T05:08:24.314Z,97903.30
2018-06-27T05:10:53.364Z,97907.01
2018-06-27T05:13:22.393Z,97910.58
2018-06-27T05:15:51.442Z,97913.91
2018-06-27T05:18:20.474Z,97921.80
2018-06-27T05:20:49.427Z,97917.70
2018-06-27T05:23:18.387Z,97925.41
2018-06-27T05:25:47.409Z,97919.76
2018-06-27T05:28:16.605Z,97916.08
2018-06-27T05:30:45.543Z,97912.63
2018-06-27T05:33:14.469Z,97907.06
2018-06-27T05:35:43.443Z,97904.37
2018-06-27T05:38:12.402Z,97897.02
2018-06-27T05:40:41.312Z,97893.22
2018-06-27T05:43:10.348Z,97885.86
2018-06-27T05:45:39.300Z,97881.08
2018-06-27T05:48:08.287Z,97878.56
2018-06-27T05:50:37.923Z,97875.87
2018-06-27T05:53:07.073Z,97873.70
2018-06-27T05:55:36.051Z,97875.97
2018-06-27T05:58:05.096Z,97875.78
2018-06-27T06:00:34.209Z,97858.39
2018-06-27T06:03:03.191Z,97846.77
2018-06-27T06:05:32.281Z,97828.73
2018-06-27T06:08:01.220Z,97826.27
2018-06-27T06:10:30.237Z,97825.73
2018-06-27T06:12:59.239Z,97825.20
2018-06-27T06:15:28.177Z,97839.70
2018-06-27T06:17:57.115Z,97861.13
2018-06-27T06:20:26.212Z,97863.56
2018-06-27T06:22:55.715Z,97875.95
2018-06-27T06:25:24.645Z,97868.72
2018-06-27T06:27:53.823Z,97856.55
2018-06-27T06:30:22.758Z,97845.50
2018-06-27T06:32:51.680Z,97835.48
2018-06-27T06:35:21.126Z,97851.45
2018-06-27T06:37:51.196Z,97854.54
2018-06-27T06:40:20.218Z,97863.34
2018-06-27T06:42:49.264Z,97864.08
2018-06-27T06:45:18.181Z,97863.55
2018-06-27T06:47:47.139Z,97860.72
2018-06-27T06:50:16.165Z,97864.19
2018-06-27T06:52:45.108Z,97865.99
2018-06-27T06:55:14.002Z,97866.95
2018-06-27T06:57:43.163Z,97861.35
2018-06-27T07:00:12.156Z,97858.18
2018-06-27T07:02:41.390Z,97862.92
2018-06-27T07:05:10.339Z,97867.52
2018-06-27T07:07:39.271Z,97869.06
2018-06-27T07:10:08.350Z,97873.81
2018-06-27T07:12:37.489Z,97871.89
2018-06-27T07:15:06.436Z,97883.47
2018-06-27T07:17:35.509Z,97881.86
2018-06-27T07:20:04.571Z,97878.22
2018-06-27T07:22:33.604Z,97883.67
2018-06-27T07:25:02.820Z,97876.00
2018-06-27T07:27:31.960Z,97874.47
2018-06-27T07:30:00.884Z,97868.49
2018-06-27T07:32:30.504Z,97863.91
2018-06-27T07:34:59.782Z,97856.21
2018-06-27T07:37:28.728Z,97855.39
2018-06-27T07:39:57.660Z,97858.20
2018-06-27T07:42:26.635Z,97856.84
2018-06-27T07:44:55.551Z,97857.06
2018-06-27T07:47:24.447Z,97852.20
2018-06-27T07:49:53.559Z,97857.38
2018-06-27T07:52:22.549Z,97864.52
2018-06-27T07:54:51.532Z,97868.08
2018-06-27T07:57:20.592Z,97865.32
2018-06-27T07:59:49.514Z,97858.68
2018-06-27T08:02:18.470Z,97860.77
2018-06-27T08:04:47.654Z,97854.57
2018-06-27T08:07:16.613Z,97843.82
2018-06-27T08:09:45.758Z,97842.46
2018-06-27T08:12:15.814Z,97837.56
2018-06-27T08:14:44.666Z,97836.23
2018-06-27T08:17:13.600Z,97835.29
2018-06-27T08:19:42.585Z,97831.28
2018-06-27T08:22:11.579Z,97832.20
2018-06-27T08:24:40.516Z,97835.48
2018-06-27T08:27:10.102Z,97829.50
2018-06-27T08:29:39.078Z,97829.79
2018-06-27T08:32:08.181Z,97834.95
2018-06-27T08:34:37.320Z,97834.89
2018-06-27T08:37:06.278Z,97837.06
2018-06-27T08:39:35.264Z,97833.23
2018-06-27T08:42:04.321Z,97842.39
2018-06-27T08:44:33.497Z,97832.74
2018-06-27T08:47:02.430Z,97831.75
2018-06-27T08:49:31.404Z,97835.94
2018-06-27T08:52:00.408Z,97829.91
2018-06-27T08:54:29.588Z,97832.48
2018-06-27T08:56:58.577Z,97840.47
2018-06-27T08:59:27.541Z,97846.50
2018-06-27T09:01:56.536Z,97856.61
2018-06-27T09:04:25.533Z,97858.19
2018-06-27T09:06:54.784Z,97866.09
2018-06-27T09:09:23.724Z,97861.35
2018-06-27T09:11:52.860Z,97860.19
2018-06-27T09:14:21.915Z,97862.15
2018-06-27T09:16:50.987Z,97856.45
2018-06-27T09:19:20.477Z,97858.44
2018-06-27T09:21:49.404Z,97855.82
2018-06-27T09:24:18.428Z,97861.00
2018-06-27T09:26:47.480Z,97852.09
2018-06-27T09:29:16.422Z,97864.20
2018-06-27T09:31:45.363Z,97860.88
2018-06-27T09:34:22.161Z,97855.20
2018-06-27T09:36:51.220Z,97853.34
2018-06-27T09:39:20.168Z,97846.30
2018-06-27T09:41:49.171Z,97846.91
2018-06-27T09:44:18.117Z,97843.13
2018-06-27T09:46:47.057Z,97839.80
2018-06-27T09:49:16.012Z,97831.81
2018-06-27T09:51:44.905Z,97833.75
2018-06-27T09:54:13.805Z,97825.82
2018-06-27T09:56:42.879Z,97828.81
2018-06-27T09:59:11.806Z,97821.56
2018-06-27T10:01:40.809Z,97825.61
2018-06-27T10:04:09.837Z,97829.40
2018-06-27T10:06:39.053Z,97822.36
2018-06-27T10:09:09.145Z,97824.81
2018-06-27T10:11:38.868Z,97814.25
2018-06-27T10:14:08.701Z,97816.28
2018-06-27T10:16:37.744Z,97822.72
2018-06-27T10:19:06.683Z,97815.14
2018-06-27T10:21:36.076Z,97822.90
2018-06-27T10:24:07.103Z,97816.29
2018-06-27T10:26:36.522Z,97817.95
2018-06-27T10:29:05.494Z,97816.42
2018-06-27T10:31:34.438Z,97813.38
2018-06-27T10:34:04.267Z,97807.02
2018-06-27T10:36:33.236Z,97804.06
2018-06-27T10:39:02.230Z,97800.49
2018-06-27T10:41:31.148Z,97800.50
2018-06-27T10:44:00.074Z,97804.10
2018-06-27T10:46:29.076Z,97806.59
2018-06-27T10:48:58.032Z,97806.31
2018-06-27T10:51:26.947Z,97808.52
2018-06-27T10:53:55.928Z,97804.39
2018-06-27T10:56:24.881Z,97798.36
2018-06-27T10:58:53.848Z,97804.20
2018-06-27T11:01:22.980Z,97800.05
2018-06-27T11:03:52.248Z,97804.75
2018-06-27T11:06:21.203Z,97808.63
2018-06-27T11:08:50.169Z,97799.53
2018-06-27T11:11:20.070Z,97796.79
2018-06-27T11:13:49.012Z,97806.43
2018-06-27T11:16:17.987Z,97798.15
2018-06-27T11:18:46.875Z,97794.58
2018-06-27T11:21:15.784Z,97793.20
2018-06-27T11:23:44.770Z,97786.89
2018-06-27T11:26:13.680Z,97780.59
2018-06-27T11:28:42.591Z,97772.31
2018-06-27T11:31:11.607Z,97772.88
2018-06-27T11:33:41.094Z,97773.41
2018-06-27T11:36:10.052Z,97765.98
2018-06-27T11:38:39.119Z,97769.24
2018-06-27T11:41:07.979Z,97765.39
2018-06-27T11:43:36.892Z,97760.98
2018-06-27T11:46:05.924Z,97759.31
2018-06-27T11:48:34.874Z,97761.77
2018-06-27T11:51:03.841Z,97752.94
2018-06-27T11:53:36.624Z,97746.83
2018-06-27T11:56:06.544Z,97748.51
2018-06-27T11:58:35.469Z,97744.05
2018-06-27T12:01:04.600Z,97743.47
2018-06-27T12:03:33.553Z,97736.29
2018-06-27T12:06:02.477Z,97739.55
2018-06-27T12:08:31.502Z,97738.47
2018-06-27T12:11:00.379Z,97733.55
2018-06-27T12:13:29.452Z,97734.12
2018-06-27T12:15:58.452Z,97722.22
2018-06-27T12:18:27.361Z,97731.46
2018-06-27T12:20:56.301Z,97722.04
2018-06-27T12:23:25.254Z,97722.59
2018-06-27T12:25:54.170Z,97720.48
2018-06-27T12:28:23.078Z,97730.48
2018-06-27T12:30:52.076Z,97714.52
2018-06-27T12:33:21.053Z,97713.94
2018-06-27T12:35:49.960Z,97715.66
2018-06-27T12:38:18.943Z,97712.69
2018-06-27T12:40:47.851Z,97708.81
2018-06-27T12:43:16.759Z,97704.91
2018-06-27T12:45:45.852Z,97708.73
2018-06-27T12:48:14.756Z,97713.06
2018-06-27T12:50:44.653Z,97704.20
2018-06-27T12:53:13.624Z,97694.77
2018-06-27T12:55:42.557Z,97692.75
2018-06-27T12:58:11.467Z,97689.14
2018-06-27T13:00:41.252Z,97681.66
2018-06-27T13:03:10.268Z,97678.73
2018-06-27T13:05:40.057Z,97671.56
2018-06-27T13:08:08.999Z,97662.30
2018-06-27T13:10:37.927Z,97664.89
2018-06-27T13:13:06.991Z,97671.36
2018-06-27T13:15:36.084Z,97669.66
2018-06-27T13:18:05.600Z,97661.31
2018-06-27T13:20:34.463Z,97664.59
2018-06-27T13:23:03.415Z,97662.75
2018-06-27T13:25:32.311Z,97663.50
2018-06-27T13:28:01.209Z,97656.13
2018-06-27T13:30:30.184Z,97656.05
2018-06-27T13:32:59.120Z,97647.89
2018-06-27T13:35:28.059Z,97652.11
2018-06-27T13:37:57.005Z,97653.16
2018-06-27T13:40:25.931Z,97655.48
2018-06-27T13:42:54.873Z,97655.41
2018-06-27T13:45:23.850Z,97648.53
2018-06-27T13:47:52.751Z,97644.47
2018-06-27T13:50:21.698Z,97649.08
2018-06-27T13:52:51.347Z,97646.42
2018-06-27T13:55:20.247Z,97647.91
2018-06-27T13:57:49.200Z,97650.89
2018-06-27T14:00:18.140Z,97656.09
2018-06-27T14:02:47.053Z,97649.12
2018-06-27T14:05:15.943Z,97648.90
2018-06-27T14:07:44.852Z,97644.58
2018-06-27T14:10:13.811Z,97637.95
2018-06-27T14:12:42.727Z,97636.88
2018-06-27T14:15:12.302Z,97634.52
2018-06-27T14:17:41.359Z,97625.98
2018-06-27T14:20:10.282Z,97629.91
2018-06-27T14:22:39.240Z,97632.36
2018-06-27T14:25:08.172Z,97633.87
2018-06-27T14:27:37.071Z,97624.02
2018-06-27T14:30:06.296Z,97625.80
2018-06-27T14:32:35.217Z,97633.88
2018-06-27T14:35:04.244Z,97626.23
2018-06-27T14:37:33.233Z,97618.06
2018-06-27T14:40:02.259Z,97609.30
2018-06-27T14:42:31.152Z,97608.48
2018-06-27T14:45:00.114Z,97603.48
2018-06-27T14:47:29.396Z,97599.86
2018-06-27T14:49:58.211Z,97597.89
2018-06-27T14:52:27.823Z,97592.34
2018-06-27T14:54:56.754Z,97593.17
2018-06-27T14:57:25.749Z,97594.28
2018-06-27T14:59:54.780Z,97589.31
2018-06-27T15:02:23.734Z,97589.31
2018-06-27T15:04:52.669Z,97587.69
2018-06-27T15:07:22.124Z,97585.80
2018-06-27T15:09:51.046Z,97587.45
2018-06-27T15:12:19.999Z,97591.94
2018-06-27T15:14:48.987Z,97601.16
2018-06-27T15:17:18.320Z,97602.36
2018-06-27T15:19:47.411Z,97613.22
2018-06-27T15:22:16.392Z,97615.23
2018-06-27T15:24:45.363Z,97629.64
2018-06-27T15:27:14.387Z,97632.45
2018-06-27T15:29:43.440Z,97640.48
2018-06-27T15:32:12.695Z,97654.54
2018-06-27T15:34:41.640Z,97653.45
2018-06-27T15:37:10.852Z,97654.83
2018-06-27T15:39:39.877Z,97652.09
2018-06-27T15:42:08.794Z,97654.28
2018-06-27T15:44:37.913Z,97636.68
2018-06-27T15:47:06.879Z,97631.18
2018-06-27T15:49:35.772Z,97626.23
2018-06-27T15:52:05.018Z,97632.84
2018-06-27T15:54:33.986Z,97641.38
2018-06-27T15:57:02.944Z,97643.55
2018-06-27T15:59:32.028Z,97649.05
2018-06-27T16:02:01.013Z,97661.16
2018-06-27T16:04:30.038Z,97671.40
2018-06-27T16:06:59.111Z,97677.45
2018-06-27T16:09:28.053Z,97692.79
2018-06-27T16:11:57.401Z,97702.91
2018-06-27T16:14:27.281Z,97717.69
2018-06-27T16:16:56.295Z,97713.49
2018-06-27T16:19:25.133Z,97720.30
2018-06-27T16:21:54.171Z,97724.63
2018-06-27T16:24:23.116Z,97726.44
2018-06-27T16:26:52.135Z,97728.02
2018-06-27T16:29:21.122Z,97734.54
2018-06-27T16:31:50.127Z,97725.62
2018-06-27T16:34:19.147Z,97720.42
2018-06-27T16:36:48.170Z,97719.00
2018-06-27T16:39:17.078Z,97714.30
2018-06-27T16:41:46.057Z,97717.28
2018-06-27T16:44:15.184Z,97712.63
2018-06-27T16:46:44.186Z,97713.45
2018-06-27T16:49:13.121Z,97718.34
2018-06-27T16:51:42.192Z,97720.83
2018-06-27T16:54:11.357Z,97724.40
2018-06-27T16:56:40.231Z,97721.66
2018-06-27T16:59:09.884Z,97712.33
2018-06-27T17:01:39.349Z,97706.84
2018-06-27T17:04:08.385Z,97693.38
2018-06-27T17:06:37.325Z,97697.78
2018-06-27T17:09:08.806Z,97694.16
2018-06-27T17:11:38.064Z,97694.45
2018-06-27T17:14:07.088Z,97688.39
2018-06-27T17:16:36.027Z,97693.03
2018-06-27T17:19:05.064Z,97693.37
2018-06-27T17:21:34.025Z,97688.42
2018-06-27T17:24:03.220Z,97686.76
2018-06-27T17:26:32.237Z,97690.53
2018-06-27T17:29:01.244Z,97687.79
2018-06-27T17:31:30.216Z,97689.74
2018-06-27T17:33:59.216Z,97682.05
2018-06-27T17:36:28.275Z,97676.59
2018-06-27T17:38:57.241Z,97681.29
2018-06-27T17:41:26.324Z,97685.94
2018-06-27T17:43:55.644Z,97685.63
2018-06-27T17:46:24.568Z,97684.50
2018-06-27T17:48:53.656Z,97677.59
2018-06-27T17:51:22.617Z,97673.77
2018-06-27T17:53:51.593Z,97680.38
2018-06-27T17:56:20.611Z,97683.36
2018-06-27T17:58:49.646Z,97677.55
2018-06-27T18:01:18.608Z,97682.16
2018-06-27T18:03:47.658Z,97686.27
2018-06-27T18:06:16.750Z,97689.55
2018-06-27T18:08:45.782Z,97689.25
2018-06-27T18:11:14.731Z,97701.87
2018-06-27T18:13:43.876Z,97698.00
2018-06-27T18:16:12.951Z,97700.27
2018-06-27T18:18:42.019Z,97698.38
2018-06-27T18:21:11.049Z,97692.11
2018-06-27T18:23:40.059Z,97692.89
2018-06-27T18:26:09.619Z,97691.23
2018-06-27T18:28:38.637Z,97687.70
2018-06-27T18:31:07.606Z,97689.30
2018-06-27T18:33:36.564Z,97695.27
2018-06-27T18:36:05.649Z,97698.83
2018-06-27T18:38:34.646Z,97698.52
2018-06-27T18:41:03.789Z,97708.09
2018-06-27T18:43:32.698Z,97725.06
2018-06-27T18:46:01.720Z,97723.08
2018-06-27T18:48:30.742Z,97721.98
2018-06-27T18:50:59.692Z,97721.69
2018-06-27T18:53:28.713Z,97707.94
2018-06-27T18:55:57.702Z,97708.25
2018-06-27T18:58:26.689Z,97699.80
2018-06-27T19:00:55.666Z,97697.88
2018-06-27T19:03:24.785Z,97698.42
2018-06-27T19:05:53.768Z,97694.33
2018-06-27T19:08:22.911Z,97693.19
2018-06-27T19:10:51.889Z,97701.92
2018-06-27T19:13:21.292Z,97706.87
2018-06-27T19:15:50.192Z,97720.03
2018-06-27T19:18:19.465Z,97723.30
2018-06-27T19:20:48.494Z,97726.64
2018-06-27T19:23:17.481Z,97737.70
2018-06-27T19:25:46.435Z,97740.80
2018-06-27T19:28:15.429Z,97741.11
2018-06-27T19:30:44.390Z,97749.70
2018-06-27T19:33:13.377Z,97742.34
2018-06-27T19:35:42.512Z,97743.47
2018-06-27T19:38:11.458Z,97740.23
2018-06-27T19:40:40.496Z,97737.22
2018-06-27T19:43:09.466Z,97750.45
2018-06-27T19:45:38.605Z,97751.57
2018-06-27T19:48:07.741Z,97759.79
2018-06-27T19:50:36.762Z,97753.23
2018-06-27T19:53:05.692Z,97751.05
2018-06-27T19:55:35.447Z,97750.52
2018-06-27T19:58:04.408Z,97747.23
2018-06-27T20:00:33.357Z,97742.58
2018-06-27T20:03:02.504Z,97750.25
2018-06-27T20:05:31.535Z,97743.66
2018-06-27T20:08:00.746Z,97750.80
2018-06-27T20:10:29.729Z,97743.95
2018-06-27T20:12:58.899Z,97746.69
2018-06-27T20:15:28.297Z,97741.16
2018-06-27T20:17:57.275Z,97741.70
2018-06-27T20:20:26.304Z,97738.13
2018-06-27T20:22:55.362Z,97734.83
2018-06-27T20:25:24.409Z,97731.80
2018-06-27T20:27:54.018Z,97720.59
2018-06-27T20:30:23.100Z,97726.07
2018-06-27T20:32:52.152Z,97724.66
2018-06-27T20:35:21.082Z,97720.01
2018-06-27T20:37:50.327Z,97716.95
2018-06-27T20:40:19.393Z,97720.42
2018-06-27T20:42:48.329Z,97714.10
2018-06-27T20:45:17.247Z,97714.64
2018-06-27T20:47:46.210Z,97715.70
2018-06-27T20:50:15.513Z,97718.97
2018-06-27T20:52:44.472Z,97725.23
2018-06-27T20:55:13.630Z,97715.63
2018-06-27T20:57:42.551Z,97715.92
2018-06-27T21:00:11.523Z,97710.69
2018-06-27T21:02:40.499Z,97708.78
2018-06-27T21:05:09.473Z,97711.52
2018-06-27T21:07:38.516Z,97714.84
2018-06-27T21:10:07.609Z,97713.25
2018-06-27T21:12:38.420Z,97711.88
2018-06-27T21:15:07.467Z,97704.21
2018-06-27T21:17:36.387Z,97684.50
2018-06-27T21:20:05.989Z,97683.13
2018-06-27T21:22:34.962Z,97675.47
2018-06-27T21:25:04.212Z,97679.27
2018-06-27T21:27:33.239Z,97685.63
2018-06-27T21:30:02.208Z,97677.66
2018-06-27T21:32:31.233Z,97672.97
2018-06-27T21:35:00.855Z,97671.05
2018-06-27T21:37:29.811Z,97662.00
2018-06-27T21:39:58.763Z,97658.19
2018-06-27T21:42:27.794Z,97664.20
2018-06-27T21:44:56.807Z,97675.45
2018-06-27T21:47:26.219Z,97666.95
2018-06-27T21:49:55.185Z,97675.69
2018-06-27T21:52:24.161Z,97677.35
2018-06-27T21:54:53.129Z,97681.46
2018-06-27T21:57:22.069Z,97670.75
2018-06-27T21:59:51.089Z,97674.91
2018-06-27T22:02:20.048Z,97683.66
2018-06-27T22:04:48.968Z,97676.52
2018-06-27T22:07:18.063Z,97676.81
2018-06-27T22:09:49.152Z,97681.16
2018-06-27T22:12:18.186Z,97681.92
2018-06-27T22:14:47.632Z,97674.25
2018-06-27T22:17:16.629Z,97676.98
2018-06-27T22:19:45.676Z,97672.05
2018-06-27T22:22:14.668Z,97666.04
2018-06-27T22:24:43.741Z,97675.44
2018-06-27T22:27:12.856Z,97672.12
2018-06-27T22:29:42.165Z,97666.09
2018-06-27T22:32:13.266Z,97668.25
2018-06-27T22:34:42.476Z,97667.12
2018-06-27T22:37:11.420Z,97668.70
2018-06-27T22:39:40.338Z,97663.14
2018-06-27T22:42:09.417Z,97664.20
2018-06-27T22:44:38.344Z,97658.73
2018-06-27T22:47:07.283Z,97661.98
2018-06-27T22:49:36.388Z,97654.02
2018-06-27T22:52:05.416Z,97656.45
2018-06-27T22:54:34.336Z,97653.73
2018-06-27T22:57:03.464Z,97648.56
2018-06-27T22:59:32.341Z,97658.12
2018-06-27T23:02:01.285Z,97664.44
2018-06-27T23:04:30.465Z,97659.20
2018-06-27T23:06:59.456Z,97654.27
2018-06-27T23:09:28.456Z,97645.56
2018-06-27T23:11:58.401Z,97633.25
2018-06-27T23:14:27.276Z,97626.34
2018-06-27T23:16:56.229Z,97629.08
2018-06-27T23:19:25.354Z,97632.11
2018-06-27T23:21:54.337Z,97629.38
2018-06-27T23:24:23.361Z,97638.95
2018-06-27T23:26:53.043Z,97633.44
2018-06-27T23:29:21.994Z,97633.44
2018-06-27T23:31:51.265Z,97634.86
2018-06-27T23:34:20.325Z,97634.62
2018-06-27T23:36:49.406Z,97636.00
2018-06-27T23:39:18.384Z,97627.02
2018-06-27T23:41:47.390Z,97621.78
2018-06-27T23:44:16.503Z,97622.41
2018-06-27T23:46:45.451Z,97621.63
2018-06-27T23:49:14.493Z,97618.36
2018-06-27T23:51:43.390Z,97616.45
2018-06-27T23:54:12.341Z,97617.00
2018-06-27T23:56:41.395Z,97608.19
2018-06-27T23:59:10.290Z,97606.81
